Overview Statistics Trail Chart Weather Telemetry Raw packets
 

This is the latest recevied weather packets stored in our database for station/object ED1ZAI-13. If no packets are shown the sender has not sent any weather packets the latest 10 day(s).

<< 6 7 8 9 10 11 12 >>
Time Temp. Humidity Pressure Rain* Wind** Luminosity Snow
1788508808 22.22° C 38% 1024.5 hPa - - - -
1788508208 21.11° C 39% 1024.4 hPa - - - -
1788507607 20.56° C 40% 1024.3 hPa - - - -
1788507007 19.44° C 43% 1024 hPa - - - -
1788506409 19.44° C 45% 1023.7 hPa - - - -
1788505808 18.33° C 46% 1023.7 hPa - - - -
1788505208 18.33° C 46% 1023.5 hPa - - - -
1788504608 17.78° C 47% 1023.4 hPa - - - -
1788504007 18.33° C 47% 1023.3 hPa - - - -
1788503436 18.33° C 46% 1023.5 hPa - - - -
1788502809 18.33° C 46% 1023.5 hPa - - - -
1788502209 17.78° C 44% 1023.7 hPa - - - -
1788501608 17.78° C 45% 1023.4 hPa - - - -
1788501006 17.78° C 46% 1023.1 hPa - - - -
1788500408 17.78° C 43% 1023.4 hPa - - - -
1788499807 18.33° C 42% 1023.6 hPa - - - -
1788499207 18.33° C 42% 1023.7 hPa - - - -
1788498607 18.33° C 42% 1023.7 hPa - - - -
1788498007 17.78° C 44% 1023.2 hPa - - - -
1788497406 18.33° C 44% 1023.5 hPa - - - -
1788496806 18.33° C 41% 1023.8 hPa - - - -
1788496194 19.44° C 39% 1024.1 hPa - - - -
1788495593 18.89° C 38% 1024.1 hPa - - - -
1788494993 18.33° C 40% 1023.9 hPa - - - -
1788494393 18.33° C 41% 1023.8 hPa - - - -

* Rain since midnight (hover to see other rain measurements)
** Current wind speed in m/s (hover to see current wind gust speed)